createdAt,value
2019-05-19T00:00:23.265Z,292.90
2019-05-19T00:00:58.554Z,295.00
2019-05-19T00:01:34.133Z,306.40
2019-05-19T00:02:09.447Z,304.50
2019-05-19T00:02:44.672Z,286.50
2019-05-19T00:03:19.861Z,300.10
2019-05-19T00:03:55.040Z,307.70
2019-05-19T00:04:30.648Z,296.40
2019-05-19T00:05:06.243Z,279.70
2019-05-19T00:05:41.603Z,276.80
2019-05-19T00:06:17.107Z,276.70
2019-05-19T00:06:52.275Z,297.80
2019-05-19T00:07:27.620Z,302.50
2019-05-19T00:08:03.031Z,295.50
2019-05-19T00:08:38.220Z,295.90
2019-05-19T00:09:16.504Z,271.00
2019-05-19T00:09:49.506Z,295.00
2019-05-19T00:10:24.999Z,306.60
2019-05-19T00:11:00.175Z,305.60
2019-05-19T00:11:35.476Z,297.90
2019-05-19T00:12:10.774Z,287.90
2019-05-19T00:12:46.067Z,290.80
2019-05-19T00:13:21.262Z,304.80
2019-05-19T00:13:56.541Z,298.60
2019-05-19T00:14:31.738Z,300.00
2019-05-19T00:15:07.206Z,294.90
2019-05-19T00:15:42.205Z,311.40
2019-05-19T00:16:17.502Z,309.60
2019-05-19T00:16:52.777Z,300.90
2019-05-19T00:17:27.907Z,298.70
2019-05-19T00:18:03.392Z,304.40
2019-05-19T00:18:38.890Z,299.90
2019-05-19T00:19:25.851Z,310.20
2019-05-19T00:19:49.553Z,311.70
2019-05-19T00:20:24.973Z,312.70
2019-05-19T00:21:00.251Z,300.50
2019-05-19T00:21:35.364Z,296.00
2019-05-19T00:22:10.468Z,317.10
2019-05-19T00:22:45.800Z,309.20
2019-05-19T00:23:21.058Z,303.50
2019-05-19T00:23:59.339Z,309.20
2019-05-19T00:24:31.437Z,301.20
2019-05-19T00:25:06.743Z,317.30
2019-05-19T00:25:42.120Z,320.90
2019-05-19T00:26:17.723Z,305.20
2019-05-19T00:26:53.126Z,324.70
2019-05-19T00:27:28.550Z,314.40
2019-05-19T00:28:03.758Z,302.30
2019-05-19T00:28:39.234Z,303.20
2019-05-19T00:29:14.528Z,313.50
2019-05-19T00:29:49.686Z,315.40
2019-05-19T00:30:24.875Z,309.70
2019-05-19T00:30:59.941Z,309.20
2019-05-19T00:31:35.254Z,296.70
2019-05-19T00:32:10.721Z,288.00
2019-05-19T00:32:46.242Z,279.60
2019-05-19T00:33:21.620Z,320.10
2019-05-19T00:33:56.728Z,323.10
2019-05-19T00:34:32.192Z,311.10
2019-05-19T00:35:07.298Z,303.50
2019-05-19T00:35:42.581Z,289.20
2019-05-19T00:36:19.614Z,314.70
2019-05-19T00:36:52.856Z,335.40
2019-05-19T00:37:28.388Z,319.90
2019-05-19T00:38:03.888Z,303.30
2019-05-19T00:38:39.079Z,326.80
2019-05-19T00:39:14.471Z,326.60
2019-05-19T00:39:49.681Z,323.90
2019-05-19T00:40:24.943Z,321.70
2019-05-19T00:41:00.437Z,307.90
2019-05-19T00:41:35.613Z,304.60
2019-05-19T00:42:10.914Z,316.90
2019-05-19T00:42:46.522Z,306.30
2019-05-19T00:43:21.803Z,306.80
2019-05-19T00:43:57.364Z,316.10
2019-05-19T00:44:32.665Z,305.70
2019-05-19T00:45:08.029Z,327.90
2019-05-19T00:45:43.533Z,344.90
2019-05-19T00:46:19.099Z,316.30
2019-05-19T00:46:54.497Z,319.30
2019-05-19T00:47:30.012Z,323.60
2019-05-19T00:48:05.413Z,328.70
2019-05-19T00:48:40.685Z,302.50
2019-05-19T00:49:16.186Z,310.40
2019-05-19T00:49:51.681Z,330.30
2019-05-19T00:50:27.069Z,323.10
2019-05-19T00:51:02.200Z,301.50
2019-05-19T00:51:37.545Z,287.90
2019-05-19T00:52:12.959Z,301.40
2019-05-19T00:52:48.451Z,334.50
2019-05-19T00:53:24.151Z,340.60
2019-05-19T00:53:59.525Z,324.90
2019-05-19T00:54:34.833Z,306.30
2019-05-19T00:55:10.195Z,291.20
2019-05-19T00:55:45.629Z,304.50
2019-05-19T00:56:20.788Z,315.20
2019-05-19T00:56:55.895Z,322.00
2019-05-19T00:57:31.587Z,309.80
2019-05-19T00:58:06.783Z,303.80
2019-05-19T00:58:42.157Z,311.30
2019-05-19T00:59:17.458Z,314.10
2019-05-19T00:59:52.740Z,314.10
2019-05-19T01:00:28.247Z,309.50
2019-05-19T01:01:03.835Z,314.00
2019-05-19T01:01:39.027Z,322.20
2019-05-19T01:02:14.384Z,331.50
2019-05-19T01:02:49.816Z,337.10
2019-05-19T01:03:25.107Z,333.00
2019-05-19T01:04:00.404Z,331.60
2019-05-19T01:04:35.679Z,319.90
2019-05-19T01:05:10.982Z,314.00
2019-05-19T01:05:46.246Z,341.40
2019-05-19T01:06:22.045Z,348.00
2019-05-19T01:06:57.315Z,348.90
2019-05-19T01:07:32.639Z,347.20
2019-05-19T01:08:08.255Z,336.30
2019-05-19T01:08:43.828Z,317.00
2019-05-19T01:09:19.328Z,330.70
2019-05-19T01:09:54.800Z,328.70
2019-05-19T01:10:30.096Z,338.10
2019-05-19T01:11:05.476Z,341.50
2019-05-19T01:11:40.780Z,322.60
2019-05-19T01:12:16.347Z,331.80
2019-05-19T01:12:51.788Z,344.10
2019-05-19T01:13:27.154Z,345.10
2019-05-19T01:14:02.662Z,345.40
2019-05-19T01:14:38.143Z,323.20
2019-05-19T01:15:13.653Z,321.10
2019-05-19T01:15:49.169Z,314.60
2019-05-19T01:16:24.639Z,323.80
2019-05-19T01:16:59.848Z,329.40
2019-05-19T01:17:35.352Z,334.00
2019-05-19T01:18:10.959Z,324.10
2019-05-19T01:18:46.628Z,309.60
2019-05-19T01:19:22.053Z,318.10
2019-05-19T01:19:57.514Z,317.20
2019-05-19T01:20:32.809Z,325.70
2019-05-19T01:21:07.995Z,332.80
2019-05-19T01:21:43.685Z,332.40
2019-05-19T01:22:18.880Z,313.20
2019-05-19T01:22:54.206Z,305.00
2019-05-19T01:23:29.484Z,317.10
2019-05-19T01:24:04.791Z,333.60
2019-05-19T01:24:40.054Z,344.20
2019-05-19T01:25:15.262Z,324.70
2019-05-19T01:25:50.433Z,310.90
2019-05-19T01:26:25.628Z,324.90
2019-05-19T01:27:00.804Z,338.50
2019-05-19T01:27:36.441Z,340.50
2019-05-19T01:28:11.655Z,313.20
2019-05-19T01:28:46.834Z,310.40
2019-05-19T01:29:22.639Z,314.90
2019-05-19T01:29:57.918Z,331.80
2019-05-19T01:30:33.117Z,340.00
2019-05-19T01:31:08.398Z,323.60
2019-05-19T01:31:43.817Z,321.10
2019-05-19T01:32:18.999Z,315.70
2019-05-19T01:32:54.835Z,320.40
2019-05-19T01:33:30.335Z,329.10
2019-05-19T01:34:05.525Z,321.70
2019-05-19T01:34:41.010Z,307.20
2019-05-19T01:35:16.314Z,312.60
2019-05-19T01:35:51.503Z,322.80
2019-05-19T01:36:26.774Z,317.90
2019-05-19T01:37:02.352Z,340.20
2019-05-19T01:37:37.974Z,336.90
2019-05-19T01:38:13.152Z,314.90
2019-05-19T01:38:48.253Z,316.70
2019-05-19T01:39:23.801Z,330.60
2019-05-19T01:39:59.024Z,334.20
2019-05-19T01:40:34.139Z,342.10
2019-05-19T01:41:09.310Z,338.60
2019-05-19T01:41:44.814Z,336.50
2019-05-19T01:42:20.099Z,339.60
2019-05-19T01:42:55.318Z,338.20
2019-05-19T01:43:30.518Z,343.90
2019-05-19T01:44:05.606Z,332.10
2019-05-19T01:44:40.915Z,330.40
2019-05-19T01:45:16.520Z,342.50
2019-05-19T01:45:51.617Z,346.40
2019-05-19T01:46:27.122Z,353.40
2019-05-19T01:47:02.405Z,343.90
2019-05-19T01:47:37.829Z,337.40
2019-05-19T01:48:13.400Z,353.30
2019-05-19T01:48:49.022Z,341.30
2019-05-19T01:49:24.290Z,346.50
2019-05-19T01:50:17.092Z,352.30
2019-05-19T01:50:34.989Z,345.90
2019-05-19T01:51:10.478Z,336.30
2019-05-19T01:51:45.687Z,351.80
2019-05-19T01:52:20.771Z,366.90
2019-05-19T01:52:56.490Z,353.20
2019-05-19T01:53:32.056Z,341.10
2019-05-19T01:54:07.562Z,343.20
2019-05-19T01:54:42.958Z,343.30
2019-05-19T01:55:18.050Z,340.60
2019-05-19T01:55:53.253Z,358.90
2019-05-19T01:56:28.457Z,357.60
2019-05-19T01:57:10.452Z,321.90
2019-05-19T01:57:46.067Z,337.60
2019-05-19T01:58:21.334Z,342.70
2019-05-19T01:58:57.023Z,348.00
2019-05-19T01:59:32.204Z,358.80
2019-05-19T02:00:07.646Z,352.60
2019-05-19T02:00:43.203Z,347.80
2019-05-19T02:01:18.472Z,353.90
2019-05-19T02:01:53.661Z,356.60
2019-05-19T02:02:29.158Z,361.80
2019-05-19T02:03:04.440Z,351.00
2019-05-19T02:03:39.704Z,350.70
2019-05-19T02:04:14.918Z,354.90
2019-05-19T02:04:50.497Z,348.40
2019-05-19T02:05:25.680Z,359.10
2019-05-19T02:06:00.973Z,365.40
2019-05-19T02:06:36.237Z,370.50
2019-05-19T02:07:11.422Z,361.60
2019-05-19T02:07:46.930Z,353.40
2019-05-19T02:08:22.227Z,384.90
2019-05-19T02:08:57.489Z,367.20
2019-05-19T02:09:33.070Z,355.70
2019-05-19T02:10:08.277Z,361.70
2019-05-19T02:10:43.460Z,361.40
2019-05-19T02:11:18.752Z,368.60
2019-05-19T02:11:54.528Z,373.50
2019-05-19T02:12:29.749Z,372.70
2019-05-19T02:13:05.355Z,362.40
2019-05-19T02:13:40.307Z,332.50
2019-05-19T02:14:15.392Z,361.70
2019-05-19T02:14:50.467Z,381.10
2019-05-19T02:15:26.230Z,374.00
2019-05-19T02:16:01.643Z,347.90
2019-05-19T02:16:36.939Z,336.10
2019-05-19T02:17:12.125Z,346.80
2019-05-19T02:17:47.540Z,370.50
2019-05-19T02:18:22.915Z,357.20
2019-05-19T02:18:58.409Z,339.10
2019-05-19T02:19:33.702Z,329.90
2019-05-19T02:20:08.999Z,344.70
2019-05-19T02:20:44.266Z,363.50
2019-05-19T02:21:19.844Z,353.80
2019-05-19T02:21:55.110Z,327.40
2019-05-19T02:22:30.344Z,326.90
2019-05-19T02:23:05.918Z,344.50
2019-05-19T02:23:41.019Z,337.70
2019-05-19T02:24:16.579Z,330.90
2019-05-19T02:24:51.771Z,338.80
2019-05-19T02:25:27.765Z,352.10
2019-05-19T02:26:03.038Z,351.00
2019-05-19T02:26:38.338Z,346.60
2019-05-19T02:27:13.414Z,329.80
2019-05-19T02:27:48.948Z,339.20
2019-05-19T02:28:24.540Z,330.60
2019-05-19T02:28:59.832Z,327.90
2019-05-19T02:29:35.102Z,316.40
2019-05-19T02:30:10.609Z,328.50
2019-05-19T02:30:46.370Z,349.30
2019-05-19T02:31:21.980Z,347.50
2019-05-19T02:31:57.145Z,351.30
2019-05-19T02:32:32.563Z,351.70
2019-05-19T02:33:07.927Z,339.90
2019-05-19T02:33:43.120Z,330.60
2019-05-19T02:34:18.608Z,331.00
2019-05-19T02:34:53.857Z,337.80
2019-05-19T02:35:29.266Z,344.40
2019-05-19T02:36:04.643Z,326.30
2019-05-19T02:36:40.116Z,321.10
2019-05-19T02:37:15.418Z,326.20
2019-05-19T02:37:50.622Z,328.00
2019-05-19T02:38:26.313Z,320.40
2019-05-19T02:39:01.797Z,333.70
2019-05-19T02:39:37.297Z,333.60
2019-05-19T02:40:12.596Z,333.00
2019-05-19T02:40:47.764Z,326.00
2019-05-19T02:41:23.360Z,329.60
2019-05-19T02:41:58.804Z,333.30
2019-05-19T02:42:34.234Z,346.10
2019-05-19T02:43:09.389Z,321.20
2019-05-19T02:43:44.783Z,297.10
2019-05-19T02:44:19.758Z,313.00
2019-05-19T02:44:55.358Z,340.00
2019-05-19T02:45:30.461Z,334.40
2019-05-19T02:46:06.136Z,329.60
2019-05-19T02:46:41.526Z,330.00
2019-05-19T02:47:16.933Z,311.90
2019-05-19T02:47:52.527Z,331.00
2019-05-19T02:48:27.900Z,350.00
2019-05-19T02:49:03.099Z,352.50
2019-05-19T02:49:38.267Z,347.60
2019-05-19T02:50:13.675Z,324.10
2019-05-19T02:50:52.684Z,332.30
2019-05-19T02:51:24.226Z,339.70
2019-05-19T02:51:59.833Z,325.40
2019-05-19T02:52:35.217Z,322.80
2019-05-19T02:53:10.784Z,327.50
2019-05-19T02:53:45.771Z,349.20
2019-05-19T02:54:21.334Z,349.50
2019-05-19T02:54:56.628Z,337.10
2019-05-19T02:55:32.011Z,336.90
2019-05-19T02:56:07.447Z,329.10
2019-05-19T02:56:42.705Z,348.30
2019-05-19T02:57:18.024Z,347.00
2019-05-19T02:57:53.312Z,341.10
2019-05-19T02:58:28.929Z,343.90
2019-05-19T02:59:03.999Z,351.50
2019-05-19T02:59:39.404Z,355.90
2019-05-19T03:00:14.582Z,341.80
2019-05-19T03:00:49.676Z,328.80
2019-05-19T03:01:24.843Z,337.70
2019-05-19T03:02:00.366Z,343.80
2019-05-19T03:02:35.547Z,332.50
2019-05-19T03:03:11.049Z,323.90
2019-05-19T03:03:46.277Z,342.00
2019-05-19T03:04:21.629Z,358.50
2019-05-19T03:04:57.118Z,356.50
2019-05-19T03:05:32.496Z,337.60
2019-05-19T03:06:07.801Z,342.00
2019-05-19T03:06:43.174Z,371.90
2019-05-19T03:07:18.706Z,365.50
2019-05-19T03:07:53.869Z,364.00
2019-05-19T03:08:29.496Z,352.40
2019-05-19T03:09:04.925Z,341.60
2019-05-19T03:09:40.437Z,354.70
2019-05-19T03:10:15.709Z,362.70
2019-05-19T03:10:50.900Z,359.30
2019-05-19T03:11:26.077Z,372.30
2019-05-19T03:12:01.416Z,359.70
2019-05-19T03:12:36.577Z,343.60
2019-05-19T03:13:11.984Z,356.80
2019-05-19T03:13:47.597Z,365.70
2019-05-19T03:14:22.683Z,366.50
2019-05-19T03:14:57.967Z,351.60
2019-05-19T03:15:33.154Z,375.80
2019-05-19T03:16:08.452Z,382.10
2019-05-19T03:16:43.875Z,375.10
2019-05-19T03:17:19.106Z,358.10
2019-05-19T03:17:54.379Z,341.80
2019-05-19T03:18:29.690Z,350.10
2019-05-19T03:19:04.961Z,356.20
2019-05-19T03:19:40.458Z,369.20
2019-05-19T03:20:15.628Z,352.10
2019-05-19T03:20:50.915Z,337.00
2019-05-19T03:21:26.187Z,342.10
2019-05-19T03:22:01.728Z,348.80
2019-05-19T03:22:37.304Z,361.30
2019-05-19T03:23:12.632Z,331.80
2019-05-19T03:23:48.296Z,319.70
2019-05-19T03:24:23.600Z,335.70
2019-05-19T03:24:59.068Z,342.70
2019-05-19T03:25:34.260Z,364.10
2019-05-19T03:26:09.824Z,370.90
2019-05-19T03:26:45.326Z,360.30
2019-05-19T03:27:20.559Z,367.60
2019-05-19T03:27:55.644Z,366.90
2019-05-19T03:28:30.678Z,362.80
2019-05-19T03:29:06.168Z,360.10
2019-05-19T03:29:41.764Z,357.00
2019-05-19T03:30:17.044Z,359.60
2019-05-19T03:30:52.455Z,367.20
2019-05-19T03:31:27.634Z,365.90
2019-05-19T03:32:02.943Z,378.70
2019-05-19T03:32:38.427Z,366.40
2019-05-19T03:33:13.763Z,360.20
2019-05-19T03:33:49.661Z,355.90
2019-05-19T03:34:24.831Z,354.70
2019-05-19T03:35:00.298Z,352.30
2019-05-19T03:35:35.606Z,368.40
2019-05-19T03:36:10.792Z,386.40
2019-05-19T03:36:45.990Z,379.90
2019-05-19T03:37:21.115Z,342.50
2019-05-19T03:37:56.621Z,346.90
2019-05-19T03:38:32.094Z,365.30
2019-05-19T03:39:07.468Z,375.00
2019-05-19T03:39:42.540Z,381.20
2019-05-19T03:40:17.854Z,361.10
2019-05-19T03:40:53.136Z,363.20
2019-05-19T03:41:28.621Z,382.70
2019-05-19T03:42:04.054Z,389.60
2019-05-19T03:42:39.408Z,395.60
2019-05-19T03:43:14.416Z,377.50
2019-05-19T03:43:49.599Z,344.70
2019-05-19T03:44:24.694Z,363.10
2019-05-19T03:44:59.997Z,384.20
2019-05-19T03:45:35.461Z,368.90
2019-05-19T03:46:11.157Z,370.20
2019-05-19T03:46:46.332Z,368.50
2019-05-19T03:47:21.817Z,354.20
2019-05-19T03:47:57.200Z,360.10
2019-05-19T03:48:32.699Z,361.50
2019-05-19T03:49:08.012Z,376.30
2019-05-19T03:49:43.275Z,386.20
2019-05-19T03:50:18.489Z,388.00
2019-05-19T03:50:54.165Z,381.30
2019-05-19T03:51:31.674Z,379.30
2019-05-19T03:52:04.843Z,371.90
2019-05-19T03:52:40.064Z,366.00
2019-05-19T03:53:15.464Z,379.60
2019-05-19T03:53:50.826Z,384.00
2019-05-19T03:54:26.175Z,389.40
2019-05-19T03:55:01.599Z,378.60
2019-05-19T03:55:37.323Z,364.90
2019-05-19T03:56:12.817Z,367.90
2019-05-19T03:56:48.307Z,363.80
2019-05-19T03:57:23.729Z,387.20
2019-05-19T03:57:58.998Z,393.40
2019-05-19T03:58:34.092Z,390.30
2019-05-19T03:59:09.467Z,399.00
2019-05-19T03:59:44.868Z,406.00
2019-05-19T04:00:20.147Z,403.70
2019-05-19T04:00:55.544Z,401.50
2019-05-19T04:01:30.916Z,408.70
2019-05-19T04:02:06.303Z,401.60
2019-05-19T04:02:41.645Z,391.50
2019-05-19T04:03:17.127Z,388.90
2019-05-19T04:03:52.425Z,396.00
2019-05-19T04:04:27.693Z,390.90
2019-05-19T04:05:02.814Z,403.20
2019-05-19T04:05:38.365Z,388.60
2019-05-19T04:06:13.751Z,365.00
2019-05-19T04:06:49.240Z,401.10
2019-05-19T04:07:24.347Z,415.90
2019-05-19T04:07:59.618Z,399.90
2019-05-19T04:08:35.002Z,399.60
2019-05-19T04:09:10.071Z,393.40
2019-05-19T04:09:45.361Z,401.40
2019-05-19T04:10:20.544Z,408.20
2019-05-19T04:10:56.036Z,419.10
2019-05-19T04:11:31.700Z,396.90
2019-05-19T04:12:07.103Z,402.10
2019-05-19T04:12:42.488Z,401.00
2019-05-19T04:13:17.986Z,420.50
2019-05-19T04:13:53.363Z,403.30
2019-05-19T04:14:28.869Z,411.40
2019-05-19T04:15:04.339Z,402.70
2019-05-19T04:15:39.833Z,411.50
2019-05-19T04:16:14.999Z,415.70
2019-05-19T04:16:50.294Z,401.40
2019-05-19T04:17:25.880Z,408.60
2019-05-19T04:18:01.282Z,393.10
2019-05-19T04:18:36.671Z,397.50
2019-05-19T04:19:11.949Z,400.10
2019-05-19T04:19:47.430Z,397.00
2019-05-19T04:20:22.823Z,411.00
2019-05-19T04:20:58.095Z,392.90
2019-05-19T04:21:47.509Z,392.70
2019-05-19T04:22:09.075Z,413.70
2019-05-19T04:22:44.813Z,408.10
2019-05-19T04:23:20.583Z,401.80
2019-05-19T04:23:55.977Z,426.40
2019-05-19T04:24:31.340Z,430.80
2019-05-19T04:25:06.936Z,410.10
2019-05-19T04:25:42.404Z,412.50
2019-05-19T04:26:18.014Z,405.30
2019-05-19T04:26:53.274Z,410.60
2019-05-19T04:27:28.686Z,412.00
2019-05-19T04:28:04.076Z,398.70
2019-05-19T04:28:39.282Z,393.90
2019-05-19T04:29:14.560Z,409.30
2019-05-19T04:29:49.796Z,416.40
2019-05-19T04:30:25.067Z,405.60
2019-05-19T04:31:00.460Z,409.20
2019-05-19T04:31:36.023Z,408.20
2019-05-19T04:32:11.612Z,419.60
2019-05-19T04:32:47.132Z,420.20
2019-05-19T04:33:22.326Z,414.20
2019-05-19T04:33:57.496Z,418.10
2019-05-19T04:34:32.583Z,421.90
2019-05-19T04:35:07.768Z,423.80
2019-05-19T04:35:42.866Z,431.70
2019-05-19T04:36:17.944Z,421.20
2019-05-19T04:36:53.533Z,433.60
2019-05-19T04:37:28.929Z,434.40
2019-05-19T04:38:04.329Z,423.60
2019-05-19T04:38:39.680Z,424.60
2019-05-19T04:39:14.991Z,420.30
2019-05-19T04:39:50.103Z,426.40
2019-05-19T04:40:25.587Z,431.20
2019-05-19T04:41:00.774Z,438.20
2019-05-19T04:41:39.842Z,431.80
2019-05-19T04:42:11.469Z,411.40
2019-05-19T04:42:46.938Z,407.80
2019-05-19T04:43:22.338Z,411.60
2019-05-19T04:43:57.608Z,429.40
2019-05-19T04:44:33.307Z,435.80
2019-05-19T04:45:08.788Z,411.80
2019-05-19T04:45:44.079Z,422.80
2019-05-19T04:46:19.162Z,428.00
2019-05-19T04:46:55.707Z,424.00
2019-05-19T04:47:30.984Z,436.30
2019-05-19T04:48:09.439Z,450.50
2019-05-19T04:48:41.625Z,457.60
2019-05-19T04:49:17.021Z,440.10
2019-05-19T04:49:52.387Z,409.70
2019-05-19T04:50:27.782Z,404.50
2019-05-19T04:51:03.084Z,412.30
2019-05-19T04:51:38.269Z,429.70
2019-05-19T04:52:13.970Z,438.90
2019-05-19T04:52:49.361Z,420.00
2019-05-19T04:53:24.522Z,405.60
2019-05-19T04:54:00.029Z,433.50
2019-05-19T04:54:35.619Z,437.60
2019-05-19T04:55:10.969Z,438.50
2019-05-19T04:55:46.351Z,441.30
2019-05-19T04:56:22.161Z,417.20
2019-05-19T04:56:57.235Z,414.90
2019-05-19T04:57:32.525Z,433.10
2019-05-19T04:58:07.937Z,429.40
2019-05-19T04:58:43.340Z,437.10
2019-05-19T04:59:18.514Z,438.90
2019-05-19T04:59:53.917Z,435.80
2019-05-19T05:00:29.181Z,455.90
2019-05-19T05:01:04.489Z,459.50
2019-05-19T05:01:39.575Z,438.10
2019-05-19T05:02:14.911Z,430.90
2019-05-19T05:02:50.417Z,444.30
2019-05-19T05:03:26.051Z,452.20
2019-05-19T05:04:01.410Z,445.70
2019-05-19T05:04:36.722Z,438.90
2019-05-19T05:05:11.996Z,438.40
2019-05-19T05:05:47.590Z,439.00
2019-05-19T05:06:23.071Z,446.50
2019-05-19T05:06:58.473Z,463.00
2019-05-19T05:07:33.557Z,458.10
2019-05-19T05:08:24.883Z,444.40
2019-05-19T05:08:44.227Z,431.90
2019-05-19T05:09:19.318Z,444.90
2019-05-19T05:09:54.593Z,453.40
2019-05-19T05:10:30.184Z,459.50
2019-05-19T05:11:05.667Z,467.90
2019-05-19T05:11:40.958Z,470.10
2019-05-19T05:12:16.521Z,459.40
2019-05-19T05:12:52.047Z,467.50
2019-05-19T05:13:27.418Z,478.40
2019-05-19T05:14:02.606Z,475.20
2019-05-19T05:14:37.971Z,471.20
2019-05-19T05:15:13.361Z,463.10
2019-05-19T05:15:48.743Z,465.80
2019-05-19T05:16:23.945Z,475.60
2019-05-19T05:16:59.218Z,479.50
2019-05-19T05:17:34.851Z,479.30
2019-05-19T05:18:10.055Z,476.00
2019-05-19T05:18:47.831Z,488.00
2019-05-19T05:19:20.890Z,502.50
2019-05-19T05:19:55.917Z,500.30
2019-05-19T05:20:31.210Z,500.90
2019-05-19T05:21:06.680Z,508.90
2019-05-19T05:21:42.089Z,520.00
2019-05-19T05:22:22.201Z,538.10
2019-05-19T05:22:52.577Z,521.10
2019-05-19T05:23:27.982Z,520.50
2019-05-19T05:24:03.370Z,524.60
2019-05-19T05:24:38.552Z,543.00
2019-05-19T05:25:13.924Z,562.70
2019-05-19T05:25:49.148Z,569.00
2019-05-19T05:26:24.541Z,581.10
2019-05-19T05:26:59.828Z,582.90
2019-05-19T05:27:35.158Z,601.50
2019-05-19T05:28:10.542Z,631.70
2019-05-19T05:28:45.937Z,657.70
2019-05-19T05:29:21.346Z,697.50
2019-05-19T05:29:56.814Z,770.70
2019-05-19T05:30:32.104Z,837.30
2019-05-19T05:31:07.306Z,828.50
2019-05-19T05:31:42.895Z,864.90
2019-05-19T05:32:18.001Z,897.70
2019-05-19T05:32:53.225Z,892.50
2019-05-19T05:33:28.323Z,726.80
2019-05-19T05:34:03.603Z,642.40
2019-05-19T05:34:38.910Z,613.20
2019-05-19T05:35:14.079Z,602.00
2019-05-19T05:35:49.998Z,591.50
2019-05-19T05:36:27.746Z,599.00
2019-05-19T05:37:00.561Z,611.70
2019-05-19T05:37:36.095Z,599.60
2019-05-19T05:38:11.369Z,609.70
2019-05-19T05:38:46.670Z,619.10
2019-05-19T05:39:22.239Z,655.40
2019-05-19T05:39:57.638Z,700.70
2019-05-19T05:40:33.042Z,638.60
2019-05-19T05:41:08.425Z,589.70
2019-05-19T05:41:43.823Z,579.30
2019-05-19T05:42:19.312Z,582.10
2019-05-19T05:42:54.699Z,591.00
2019-05-19T05:43:29.977Z,601.90
2019-05-19T05:44:05.278Z,586.20
2019-05-19T05:44:40.273Z,566.10
2019-05-19T05:45:15.555Z,570.10
2019-05-19T05:45:51.081Z,566.10
2019-05-19T05:46:26.397Z,578.10
2019-05-19T05:47:01.582Z,585.90
2019-05-19T05:47:36.976Z,589.50
2019-05-19T05:48:12.491Z,586.70
2019-05-19T05:48:47.661Z,561.70
2019-05-19T05:49:22.976Z,560.50
2019-05-19T05:49:58.076Z,565.90
2019-05-19T05:50:33.252Z,585.90
2019-05-19T05:51:08.662Z,594.70
2019-05-19T05:51:43.922Z,602.10
2019-05-19T05:52:19.640Z,590.40
2019-05-19T05:52:54.953Z,624.30
2019-05-19T05:53:30.352Z,738.70
2019-05-19T05:54:05.532Z,546.10
2019-05-19T05:54:40.844Z,498.60
2019-05-19T05:55:16.218Z,491.00
2019-05-19T05:55:51.422Z,461.70
2019-05-19T05:56:26.730Z,442.30
2019-05-19T05:57:02.105Z,450.00
2019-05-19T05:57:37.438Z,462.20
2019-05-19T05:58:12.610Z,456.90
2019-05-19T05:58:48.181Z,445.00
2019-05-19T05:59:23.350Z,433.50
2019-05-19T05:59:58.640Z,452.50
2019-05-19T06:00:33.915Z,445.70
2019-05-19T06:01:09.619Z,440.00
2019-05-19T06:01:45.088Z,428.00
2019-05-19T06:02:20.301Z,433.60
2019-05-19T06:02:55.721Z,455.50
2019-05-19T06:03:30.993Z,450.30
2019-05-19T06:04:06.176Z,435.70
2019-05-19T06:04:42.441Z,431.60
2019-05-19T06:05:17.814Z,422.80
2019-05-19T06:05:53.008Z,404.90
2019-05-19T06:06:28.183Z,416.50
2019-05-19T06:07:03.482Z,426.50
2019-05-19T06:07:38.682Z,410.00
2019-05-19T06:08:14.315Z,410.30
2019-05-19T06:08:49.384Z,420.90
2019-05-19T06:09:24.486Z,431.70
2019-05-19T06:09:59.610Z,417.60
2019-05-19T06:10:34.734Z,409.30
2019-05-19T06:11:10.046Z,415.40
2019-05-19T06:11:45.322Z,423.10
2019-05-19T06:12:20.630Z,420.60
2019-05-19T06:12:55.955Z,410.80
2019-05-19T06:13:31.447Z,395.80
2019-05-19T06:14:07.039Z,398.40
2019-05-19T06:14:42.629Z,410.30
2019-05-19T06:15:17.706Z,415.00
2019-05-19T06:15:53.637Z,416.90
2019-05-19T06:16:28.889Z,420.90
2019-05-19T06:17:04.503Z,419.00
2019-05-19T06:17:39.810Z,414.90
2019-05-19T06:18:15.147Z,422.10
2019-05-19T06:18:50.189Z,428.20
2019-05-19T06:19:25.401Z,421.70
2019-05-19T06:20:00.777Z,413.30
2019-05-19T06:20:36.178Z,430.40
2019-05-19T06:21:11.360Z,424.00
2019-05-19T06:21:46.661Z,412.20
2019-05-19T06:22:22.047Z,414.40
2019-05-19T06:22:57.417Z,414.80
2019-05-19T06:23:32.756Z,415.80
2019-05-19T06:24:07.943Z,412.80
2019-05-19T06:24:43.426Z,421.20
2019-05-19T06:25:18.782Z,428.50
2019-05-19T06:25:53.822Z,421.10
2019-05-19T06:26:29.436Z,417.50
2019-05-19T06:27:04.820Z,404.40
2019-05-19T06:27:40.055Z,417.20
2019-05-19T06:28:15.430Z,419.60
2019-05-19T06:28:50.929Z,425.70
2019-05-19T06:29:26.200Z,419.20
2019-05-19T06:30:01.611Z,421.00
2019-05-19T06:30:36.910Z,427.60
2019-05-19T06:31:12.295Z,421.60
2019-05-19T06:31:47.587Z,423.40
2019-05-19T06:32:22.863Z,416.90
2019-05-19T06:32:58.105Z,409.70
2019-05-19T06:33:33.569Z,415.00
2019-05-19T06:34:08.965Z,416.40
2019-05-19T06:34:44.241Z,420.70
2019-05-19T06:35:19.563Z,421.90
2019-05-19T06:35:54.965Z,420.70
2019-05-19T06:36:30.446Z,417.30
2019-05-19T06:37:05.868Z,410.20
2019-05-19T06:37:41.165Z,417.00
2019-05-19T06:38:16.167Z,429.80
2019-05-19T06:38:51.344Z,417.40
2019-05-19T06:39:26.543Z,412.10
2019-05-19T06:40:02.031Z,419.60
2019-05-19T06:40:37.439Z,429.00
2019-05-19T06:41:12.624Z,443.80
2019-05-19T06:41:47.831Z,438.50
2019-05-19T06:42:23.011Z,428.70
2019-05-19T06:42:58.348Z,418.40
2019-05-19T06:43:33.835Z,429.60
2019-05-19T06:44:09.425Z,438.50
2019-05-19T06:44:44.910Z,427.30
2019-05-19T06:45:20.204Z,422.90
2019-05-19T06:45:55.614Z,442.80
2019-05-19T06:46:30.994Z,439.70
2019-05-19T06:47:06.396Z,430.00
2019-05-19T06:47:41.396Z,442.50
2019-05-19T06:48:16.820Z,462.30
2019-05-19T06:48:51.894Z,459.00
2019-05-19T06:49:27.204Z,435.50
2019-05-19T06:50:02.465Z,460.50
2019-05-19T06:50:40.663Z,489.10
2019-05-19T06:51:13.309Z,493.00
2019-05-19T06:51:48.589Z,545.70
2019-05-19T06:52:24.220Z,587.50
2019-05-19T06:53:12.733Z,562.90
2019-05-19T06:53:35.205Z,493.70
2019-05-19T06:54:10.303Z,453.90
2019-05-19T06:54:45.810Z,459.00
2019-05-19T06:55:21.313Z,479.60
2019-05-19T06:55:56.487Z,508.90
2019-05-19T06:56:31.716Z,547.90
2019-05-19T06:57:07.190Z,829.70
2019-05-19T06:57:42.621Z,591.70
2019-05-19T06:58:18.127Z,535.90
2019-05-19T06:58:53.423Z,519.10
2019-05-19T06:59:28.902Z,521.90
2019-05-19T07:00:04.097Z,621.50
2019-05-19T07:00:39.274Z,594.70
2019-05-19T07:01:14.674Z,510.30
2019-05-19T07:01:50.045Z,495.50
2019-05-19T07:02:25.566Z,501.50
2019-05-19T07:03:00.956Z,528.70
2019-05-19T07:03:36.249Z,539.20
2019-05-19T07:04:11.470Z,545.90
2019-05-19T07:04:47.447Z,498.60
2019-05-19T07:05:22.842Z,422.00
2019-05-19T07:05:58.206Z,426.90
2019-05-19T07:06:34.277Z,445.20
2019-05-19T07:07:08.996Z,447.60
2019-05-19T07:07:44.207Z,470.80
2019-05-19T07:08:19.696Z,498.30
2019-05-19T07:08:55.011Z,552.40
2019-05-19T07:09:30.433Z,995.30
2019-05-19T07:10:06.134Z,970.40
2019-05-19T07:10:41.428Z,832.50
2019-05-19T07:11:17.029Z,769.70
2019-05-19T07:11:52.333Z,603.40
2019-05-19T07:12:27.740Z,499.70
2019-05-19T07:13:03.254Z,457.90
2019-05-19T07:13:38.515Z,424.70
2019-05-19T07:14:13.826Z,365.00
2019-05-19T07:14:49.114Z,310.20
2019-05-19T07:15:24.622Z,267.90
2019-05-19T07:15:59.749Z,244.80
2019-05-19T07:16:35.017Z,231.60
2019-05-19T07:17:10.319Z,227.80
2019-05-19T07:17:45.517Z,228.80
2019-05-19T07:18:21.020Z,222.00
2019-05-19T07:18:56.400Z,204.60
2019-05-19T07:19:31.921Z,196.10
2019-05-19T07:20:07.380Z,177.60
2019-05-19T07:20:42.885Z,176.60
2019-05-19T07:21:18.185Z,180.10